createdAt,value
2023-01-25T00:02:18.670Z,3.10
2023-01-25T00:05:04.577Z,3.20
2023-01-25T00:07:50.089Z,3.42
2023-01-25T00:10:35.770Z,2.95
2023-01-25T00:13:21.428Z,3.00
2023-01-25T00:16:07.113Z,3.10
2023-01-25T00:18:52.399Z,3.78
2023-01-25T00:21:38.581Z,3.63
2023-01-25T00:24:25.617Z,3.60
2023-01-25T00:27:11.336Z,3.42
2023-01-25T00:29:57.161Z,3.50
2023-01-25T00:33:06.295Z,3.28
2023-01-25T00:35:51.812Z,3.53
2023-01-25T00:38:38.393Z,3.47
2023-01-25T00:41:23.886Z,3.28
2023-01-25T00:44:09.790Z,4.10
2023-01-25T00:46:55.496Z,3.80
2023-01-25T00:49:42.160Z,4.00
2023-01-25T00:52:28.531Z,3.63
2023-01-25T00:55:15.421Z,3.58
2023-01-25T00:58:00.822Z,4.03
2023-01-25T01:00:46.362Z,3.72
2023-01-25T01:03:32.007Z,3.88
2023-01-25T01:06:17.335Z,4.30
2023-01-25T01:09:03.728Z,4.20
2023-01-25T01:11:49.419Z,4.45
2023-01-25T01:14:34.667Z,3.53
2023-01-25T01:17:20.326Z,3.63
2023-01-25T01:20:06.039Z,4.40
2023-01-25T01:22:52.648Z,3.88
2023-01-25T01:25:38.233Z,4.13
2023-01-25T01:28:23.688Z,4.45
2023-01-25T01:31:16.309Z,4.18
2023-01-25T01:34:01.924Z,4.53
2023-01-25T01:36:47.285Z,4.47
2023-01-25T01:39:33.263Z,4.30
2023-01-25T01:42:18.733Z,4.75
2023-01-25T01:45:42.616Z,4.72
2023-01-25T01:48:39.129Z,4.45
2023-01-25T01:51:27.194Z,3.85
2023-01-25T01:54:25.533Z,4.22
2023-01-25T01:57:15.168Z,3.35
2023-01-25T02:00:06.835Z,3.65
2023-01-25T02:02:52.999Z,4.22
2023-01-25T02:05:50.378Z,4.57
2023-01-25T02:08:36.952Z,4.30
2023-01-25T02:11:22.740Z,4.50
2023-01-25T02:14:08.930Z,3.42
2023-01-25T02:16:54.348Z,3.65
2023-01-25T02:19:51.445Z,2.92
2023-01-25T02:22:51.570Z,2.80
2023-01-25T02:25:37.433Z,3.25
2023-01-25T02:28:48.564Z,2.67
2023-01-25T02:31:34.496Z,4.00
2023-01-25T02:34:20.175Z,3.78
2023-01-25T02:37:05.906Z,4.75
2023-01-25T02:39:51.422Z,4.60
2023-01-25T02:42:36.915Z,4.63
2023-01-25T02:45:27.783Z,4.13
2023-01-25T02:48:13.390Z,2.67
2023-01-25T02:50:58.717Z,3.65
2023-01-25T02:53:44.135Z,3.35
2023-01-25T02:56:30.062Z,3.63
2023-01-25T02:59:15.557Z,3.40
2023-01-25T03:02:01.223Z,3.17
2023-01-25T03:04:46.971Z,3.10
2023-01-25T03:07:32.608Z,3.53
2023-01-25T03:10:18.330Z,3.42
2023-01-25T03:13:03.657Z,3.60
2023-01-25T03:15:49.279Z,3.15
2023-01-25T03:18:34.949Z,3.22
2023-01-25T03:21:21.422Z,2.63
2023-01-25T03:24:07.164Z,3.53
2023-01-25T03:27:10.593Z,3.03
2023-01-25T03:29:56.068Z,3.95
2023-01-25T03:32:41.719Z,4.13
2023-01-25T03:35:27.599Z,4.20
2023-01-25T03:38:12.996Z,3.45
2023-01-25T03:40:58.843Z,4.60
2023-01-25T03:43:44.322Z,5.20
2023-01-25T03:46:30.131Z,4.78
2023-01-25T03:49:15.345Z,4.72
2023-01-25T03:52:00.980Z,4.70
2023-01-25T03:54:46.545Z,4.57
2023-01-25T03:57:32.101Z,3.53
2023-01-25T04:00:18.184Z,3.60
2023-01-25T04:03:03.734Z,3.20
2023-01-25T04:05:49.379Z,3.60
2023-01-25T04:08:35.655Z,3.22
2023-01-25T04:11:21.320Z,3.33
2023-01-25T04:14:06.925Z,3.63
2023-01-25T04:16:52.201Z,3.77
2023-01-25T04:19:37.746Z,3.70
2023-01-25T04:22:23.144Z,3.53
2023-01-25T04:25:09.431Z,2.60
2023-01-25T04:27:55.250Z,2.97
2023-01-25T04:30:40.376Z,2.78
2023-01-25T04:33:25.993Z,3.03
2023-01-25T04:36:11.582Z,2.83
2023-01-25T04:38:57.235Z,3.17
2023-01-25T04:41:44.616Z,3.15
2023-01-25T04:44:29.996Z,3.45
2023-01-25T04:47:15.837Z,3.50
2023-01-25T04:50:01.486Z,3.20
2023-01-25T04:52:46.887Z,3.15
2023-01-25T04:55:33.987Z,3.35
2023-01-25T04:58:19.868Z,3.53
2023-01-25T05:01:05.852Z,3.40
2023-01-25T05:03:51.656Z,3.15
2023-01-25T05:06:37.266Z,3.20
2023-01-25T05:09:22.641Z,4.00
2023-01-25T05:12:11.646Z,4.13
2023-01-25T05:14:57.238Z,4.38
2023-01-25T05:17:42.780Z,3.65
2023-01-25T05:20:28.761Z,4.25
2023-01-25T05:23:14.495Z,4.05
2023-01-25T05:26:18.546Z,3.90
2023-01-25T05:29:03.978Z,3.85
2023-01-25T05:31:49.756Z,4.25
2023-01-25T05:34:36.044Z,4.40
2023-01-25T05:37:21.616Z,4.05
2023-01-25T05:40:08.274Z,4.20
2023-01-25T05:42:58.334Z,4.00
2023-01-25T05:45:44.125Z,4.07
2023-01-25T05:48:29.337Z,3.70
2023-01-25T05:51:15.091Z,3.80
2023-01-25T05:54:00.641Z,3.30
2023-01-25T05:56:48.746Z,3.10
2023-01-25T05:59:34.019Z,3.28
2023-01-25T06:02:19.735Z,3.65
2023-01-25T06:05:05.985Z,2.95
2023-01-25T06:07:51.529Z,3.20
2023-01-25T06:10:37.082Z,3.17
2023-01-25T06:13:24.685Z,4.18
2023-01-25T06:16:10.358Z,3.90
2023-01-25T06:18:55.825Z,3.20
2023-01-25T06:21:41.562Z,2.92
2023-01-25T06:24:26.884Z,3.08
2023-01-25T06:27:12.695Z,3.07
2023-01-25T06:29:58.273Z,2.80
2023-01-25T06:32:43.773Z,2.72
2023-01-25T06:35:31.813Z,2.97
2023-01-25T06:38:17.368Z,3.38
2023-01-25T06:41:05.297Z,2.97
2023-01-25T06:43:51.532Z,3.30
2023-01-25T06:46:37.492Z,3.63
2023-01-25T06:49:23.471Z,4.18
2023-01-25T06:52:08.885Z,3.95
2023-01-25T06:54:54.518Z,3.58
2023-01-25T06:57:40.056Z,4.18
2023-01-25T07:00:25.269Z,3.75
2023-01-25T07:03:11.063Z,4.85
2023-01-25T07:06:01.312Z,4.40
2023-01-25T07:08:47.510Z,3.35
2023-01-25T07:11:33.279Z,2.95
2023-01-25T07:14:18.695Z,3.57
2023-01-25T07:17:04.173Z,4.10
2023-01-25T07:19:49.452Z,3.85
2023-01-25T07:22:34.785Z,4.22
2023-01-25T07:25:20.091Z,3.22
2023-01-25T07:28:05.844Z,3.15
2023-01-25T07:30:51.458Z,3.25
2023-01-25T07:33:36.910Z,3.37
2023-01-25T07:36:23.254Z,3.00
2023-01-25T07:39:11.540Z,2.65
2023-01-25T07:41:57.333Z,2.80
2023-01-25T07:44:43.005Z,3.00
2023-01-25T07:47:28.352Z,2.95
2023-01-25T07:50:14.119Z,2.88
2023-01-25T07:52:59.553Z,3.13
2023-01-25T07:55:45.015Z,3.33
2023-01-25T07:58:30.231Z,2.83
2023-01-25T08:01:18.909Z,3.25
2023-01-25T08:04:05.366Z,2.78
2023-01-25T08:06:50.820Z,2.95
2023-01-25T08:09:36.495Z,3.13
2023-01-25T08:12:22.563Z,2.58
2023-01-25T08:15:09.391Z,3.08
2023-01-25T08:17:55.340Z,3.57
2023-01-25T08:20:41.057Z,3.10
2023-01-25T08:23:27.250Z,3.78
2023-01-25T08:26:14.817Z,4.10
2023-01-25T08:29:00.438Z,3.25
2023-01-25T08:31:47.270Z,3.23
2023-01-25T08:34:32.611Z,3.55
2023-01-25T08:37:18.248Z,3.33
2023-01-25T08:40:04.224Z,3.13
2023-01-25T08:42:49.661Z,3.13
2023-01-25T08:45:36.981Z,3.20
2023-01-25T08:48:22.518Z,3.53
2023-01-25T08:51:09.597Z,3.25
2023-01-25T08:53:54.839Z,2.85
2023-01-25T08:56:41.425Z,3.03
2023-01-25T08:59:26.763Z,3.67
2023-01-25T09:02:12.731Z,3.73
2023-01-25T09:04:58.085Z,4.13
2023-01-25T09:07:43.513Z,3.15
2023-01-25T09:10:28.777Z,4.30
2023-01-25T09:13:14.532Z,2.90
2023-01-25T09:16:04.686Z,3.70
2023-01-25T09:18:50.914Z,3.35
2023-01-25T09:21:37.094Z,4.10
2023-01-25T09:24:22.486Z,2.80
2023-01-25T09:27:08.094Z,3.80
2023-01-25T09:30:01.293Z,3.50
2023-01-25T09:32:50.380Z,3.60
2023-01-25T09:35:37.249Z,4.15
2023-01-25T09:38:22.942Z,4.13
2023-01-25T09:41:21.807Z,3.63
2023-01-25T09:44:44.785Z,3.92
2023-01-25T09:47:59.146Z,3.80
2023-01-25T09:51:05.754Z,4.20
2023-01-25T09:53:54.046Z,4.20
2023-01-25T09:56:40.113Z,4.10
2023-01-25T09:59:30.657Z,3.78
2023-01-25T10:02:34.735Z,3.78
2023-01-25T10:05:27.772Z,4.00
2023-01-25T10:08:32.658Z,4.00
2023-01-25T10:11:24.924Z,3.70
2023-01-25T10:14:15.179Z,4.40
2023-01-25T10:17:20.209Z,4.40
2023-01-25T10:20:05.596Z,4.40
2023-01-25T10:22:58.270Z,4.33
2023-01-25T10:25:56.681Z,4.30
2023-01-25T10:29:00.468Z,4.60
2023-01-25T10:31:53.340Z,4.25
2023-01-25T10:34:55.930Z,3.80
2023-01-25T10:37:43.075Z,4.55
2023-01-25T10:40:35.260Z,4.45
2023-01-25T10:43:22.492Z,4.07
2023-01-25T10:46:24.825Z,3.72
2023-01-25T10:49:42.720Z,3.72
2023-01-25T10:52:32.565Z,4.18
2023-01-25T10:55:23.056Z,4.23
2023-01-25T10:58:32.733Z,4.10
2023-01-25T11:01:35.676Z,4.22
2023-01-25T11:04:35.292Z,3.65
2023-01-25T11:07:28.944Z,4.13
2023-01-25T11:10:35.261Z,3.38
2023-01-25T11:13:27.740Z,3.72
2023-01-25T11:16:32.953Z,3.78
2023-01-25T11:19:38.917Z,3.90
2023-01-25T11:22:24.757Z,4.32
2023-01-25T11:25:31.435Z,4.22
2023-01-25T11:28:20.576Z,4.03
2023-01-25T11:31:12.481Z,4.22
2023-01-25T11:33:57.967Z,4.20
2023-01-25T11:37:05.081Z,4.35
2023-01-25T11:40:30.098Z,5.00
2023-01-25T11:43:44.509Z,4.10
2023-01-25T11:47:02.155Z,4.15
2023-01-25T11:50:07.362Z,4.57
2023-01-25T11:53:13.989Z,3.95
2023-01-25T11:56:29.745Z,4.40
2023-01-25T11:59:35.901Z,5.88
2023-01-25T12:02:36.462Z,6.13
2023-01-25T12:05:38.772Z,6.22
2023-01-25T12:08:50.949Z,6.15
2023-01-25T12:12:01.352Z,6.35
2023-01-25T12:15:10.079Z,6.43
2023-01-25T12:18:26.130Z,6.03
2023-01-25T12:21:31.598Z,5.77
2023-01-25T12:24:37.660Z,5.93
2023-01-25T12:27:37.629Z,6.50
2023-01-25T12:30:36.277Z,5.17
2023-01-25T12:33:32.018Z,5.70
2023-01-25T12:36:38.379Z,5.97
2023-01-25T12:39:31.752Z,5.95
2023-01-25T12:42:22.537Z,6.00
2023-01-25T12:45:22.195Z,5.67
2023-01-25T12:48:21.713Z,5.20
2023-01-25T12:51:08.253Z,5.47
2023-01-25T12:53:55.219Z,5.80
2023-01-25T12:56:52.844Z,5.50
2023-01-25T13:00:04.473Z,5.77
2023-01-25T13:03:04.203Z,4.68
2023-01-25T13:06:03.739Z,4.95
2023-01-25T13:09:01.621Z,4.75
2023-01-25T13:11:47.908Z,5.63
2023-01-25T13:14:38.459Z,4.40
2023-01-25T13:17:34.271Z,4.88
2023-01-25T13:20:40.328Z,4.17
2023-01-25T13:23:47.563Z,4.75
2023-01-25T13:26:54.223Z,4.45
2023-01-25T13:29:39.723Z,3.72
2023-01-25T13:32:25.150Z,4.13
2023-01-25T13:35:30.893Z,3.70
2023-01-25T13:38:29.747Z,3.90
2023-01-25T13:41:17.347Z,3.13
2023-01-25T13:44:22.764Z,3.20
2023-01-25T13:47:12.495Z,3.53
2023-01-25T13:50:21.464Z,3.67
2023-01-25T13:53:24.197Z,3.42
2023-01-25T13:56:26.273Z,4.13
2023-01-25T13:59:25.796Z,3.45
2023-01-25T14:02:19.074Z,3.40
2023-01-25T14:05:08.120Z,3.88
2023-01-25T14:07:56.988Z,3.57
2023-01-25T14:10:44.283Z,3.20
2023-01-25T14:13:29.727Z,3.03
2023-01-25T14:16:17.842Z,2.78
2023-01-25T14:19:24.113Z,3.20
2023-01-25T14:22:29.476Z,3.50
2023-01-25T14:25:17.386Z,3.13
2023-01-25T14:28:06.833Z,3.95
2023-01-25T14:30:55.183Z,2.50
2023-01-25T14:33:47.671Z,3.15
2023-01-25T14:36:37.038Z,2.72
2023-01-25T14:39:28.974Z,3.22
2023-01-25T14:42:16.575Z,3.00
2023-01-25T14:45:03.946Z,2.80
2023-01-25T14:47:59.431Z,2.63
2023-01-25T14:50:45.457Z,3.07
2023-01-25T14:53:31.575Z,2.42
2023-01-25T14:56:20.064Z,3.05
2023-01-25T14:59:06.266Z,3.33
2023-01-25T15:01:54.312Z,3.35
2023-01-25T15:04:39.705Z,3.53
2023-01-25T15:07:43.897Z,3.17
2023-01-25T15:10:31.774Z,3.15
2023-01-25T15:13:17.218Z,2.90
2023-01-25T15:16:04.061Z,3.28
2023-01-25T15:18:51.743Z,3.08
2023-01-25T15:21:37.476Z,3.10
2023-01-25T15:24:23.673Z,3.60
2023-01-25T15:27:10.284Z,3.67
2023-01-25T15:29:55.639Z,3.33
2023-01-25T15:32:41.217Z,3.40
2023-01-25T15:35:27.795Z,3.42
2023-01-25T15:38:14.605Z,2.63
2023-01-25T15:41:01.554Z,2.88
2023-01-25T15:43:48.098Z,3.63
2023-01-25T15:46:35.133Z,3.77
2023-01-25T15:49:31.522Z,3.50
2023-01-25T15:52:17.010Z,3.10
2023-01-25T15:55:02.826Z,2.75
2023-01-25T15:57:48.493Z,3.35
2023-01-25T16:00:34.432Z,2.67
2023-01-25T16:03:20.371Z,2.30
2023-01-25T16:06:30.086Z,3.03
2023-01-25T16:09:22.113Z,2.97
2023-01-25T16:12:08.618Z,3.70
2023-01-25T16:14:54.064Z,2.50
2023-01-25T16:17:39.612Z,3.33
2023-01-25T16:20:25.037Z,3.15
2023-01-25T16:23:11.943Z,3.00
2023-01-25T16:25:57.872Z,3.28
2023-01-25T16:28:43.163Z,3.80
2023-01-25T16:31:32.959Z,3.38
2023-01-25T16:34:20.244Z,3.93
2023-01-25T16:37:05.561Z,3.95
2023-01-25T16:39:52.532Z,3.00
2023-01-25T16:42:37.762Z,3.30
2023-01-25T16:45:24.131Z,3.60
2023-01-25T16:48:15.529Z,3.40
2023-01-25T16:51:02.323Z,3.57
2023-01-25T16:53:48.862Z,3.22
2023-01-25T16:56:34.384Z,3.92
2023-01-25T16:59:20.778Z,3.33
2023-01-25T17:02:06.149Z,3.38
2023-01-25T17:04:51.891Z,3.53
2023-01-25T17:07:37.586Z,3.00
2023-01-25T17:10:24.058Z,3.30
2023-01-25T17:13:09.375Z,3.13
2023-01-25T17:15:58.413Z,3.65
2023-01-25T17:18:44.465Z,3.17
2023-01-25T17:21:31.436Z,3.42
2023-01-25T17:24:20.928Z,3.30
2023-01-25T17:27:06.802Z,3.05
2023-01-25T17:29:52.142Z,3.00
2023-01-25T17:32:37.535Z,2.90
2023-01-25T17:35:22.825Z,2.78
2023-01-25T17:38:08.765Z,2.65
2023-01-25T17:40:55.199Z,3.03
2023-01-25T17:43:41.123Z,3.58
2023-01-25T17:46:33.188Z,3.30
2023-01-25T17:49:18.954Z,2.85
2023-01-25T17:52:04.445Z,2.90
2023-01-25T17:54:49.814Z,2.93
2023-01-25T17:57:37.062Z,3.17
2023-01-25T18:00:23.081Z,2.92
2023-01-25T18:03:08.705Z,3.58
2023-01-25T18:05:58.132Z,3.35
2023-01-25T18:08:45.844Z,2.70
2023-01-25T18:11:34.658Z,3.30
2023-01-25T18:14:20.322Z,2.95
2023-01-25T18:17:05.587Z,3.25
2023-01-25T18:19:51.345Z,3.42
2023-01-25T18:22:37.150Z,3.45
2023-01-25T18:25:36.667Z,3.47
2023-01-25T18:28:21.855Z,3.07
2023-01-25T18:31:07.669Z,2.97
2023-01-25T18:33:53.028Z,3.42
2023-01-25T18:36:38.339Z,3.60
2023-01-25T18:39:23.988Z,3.63
2023-01-25T18:42:09.315Z,3.30
2023-01-25T18:44:54.848Z,3.28
2023-01-25T18:47:40.277Z,3.78
2023-01-25T18:50:26.017Z,3.53
2023-01-25T18:53:11.858Z,3.47
2023-01-25T18:56:02.084Z,3.13
2023-01-25T18:58:48.446Z,3.30
2023-01-25T19:01:34.288Z,2.97
2023-01-25T19:04:19.700Z,3.42
2023-01-25T19:07:05.530Z,3.05
2023-01-25T19:09:50.796Z,2.55
2023-01-25T19:12:36.481Z,2.83
2023-01-25T19:15:22.443Z,2.47
2023-01-25T19:18:07.908Z,2.88
2023-01-25T19:20:53.424Z,2.75
2023-01-25T19:23:40.099Z,2.28
2023-01-25T19:26:25.784Z,2.65
2023-01-25T19:29:13.617Z,2.13
2023-01-25T19:31:58.835Z,2.67
2023-01-25T19:34:44.517Z,2.75
2023-01-25T19:37:30.116Z,2.25
2023-01-25T19:40:15.706Z,2.60
2023-01-25T19:43:01.096Z,3.33
2023-01-25T19:45:46.601Z,2.42
2023-01-25T19:48:34.489Z,3.03
2023-01-25T19:51:32.735Z,3.00
2023-01-25T19:54:18.806Z,3.33
2023-01-25T19:57:04.100Z,3.33
2023-01-25T19:59:49.590Z,2.97
2023-01-25T20:02:34.973Z,3.38
2023-01-25T20:05:21.583Z,3.30
2023-01-25T20:08:07.061Z,2.87
2023-01-25T20:10:57.658Z,3.00
2023-01-25T20:13:43.875Z,3.22
2023-01-25T20:16:32.128Z,3.28
2023-01-25T20:19:17.488Z,3.33
2023-01-25T20:22:03.857Z,3.40
2023-01-25T20:24:49.491Z,3.80
2023-01-25T20:27:35.124Z,3.70
2023-01-25T20:30:20.787Z,2.92
2023-01-25T20:33:06.176Z,3.03
2023-01-25T20:35:54.167Z,3.03
2023-01-25T20:38:39.799Z,3.17
2023-01-25T20:41:25.813Z,3.10
2023-01-25T20:44:15.768Z,3.35
2023-01-25T20:47:01.274Z,3.65
2023-01-25T20:49:46.857Z,3.88
2023-01-25T20:52:32.311Z,3.17
2023-01-25T20:55:17.883Z,3.78
2023-01-25T20:58:03.223Z,3.40
2023-01-25T21:00:48.955Z,3.17
2023-01-25T21:03:34.538Z,3.80
2023-01-25T21:06:20.621Z,3.30
2023-01-25T21:09:06.439Z,3.95
2023-01-25T21:11:52.189Z,3.40
2023-01-25T21:14:37.880Z,2.95
2023-01-25T21:17:23.120Z,3.33
2023-01-25T21:20:09.351Z,3.05
2023-01-25T21:22:54.744Z,4.63
2023-01-25T21:25:40.437Z,3.55
2023-01-25T21:28:25.889Z,3.58
2023-01-25T21:31:15.379Z,3.42
2023-01-25T21:34:02.249Z,4.68
2023-01-25T21:36:48.618Z,4.57
2023-01-25T21:39:33.997Z,4.75
2023-01-25T21:42:19.438Z,4.05
2023-01-25T21:45:23.744Z,4.22
2023-01-25T21:48:09.295Z,5.63
2023-01-25T21:51:13.168Z,5.95
2023-01-25T21:53:59.192Z,6.20
2023-01-25T21:56:45.491Z,6.30
2023-01-25T21:59:30.784Z,6.30
2023-01-25T22:02:16.262Z,7.10
2023-01-25T22:05:01.597Z,7.20
2023-01-25T22:07:46.980Z,7.30
2023-01-25T22:10:32.323Z,7.53
2023-01-25T22:13:17.661Z,6.53
2023-01-25T22:16:05.244Z,8.32
2023-01-25T22:18:51.001Z,8.05
2023-01-25T22:21:36.667Z,9.13
2023-01-25T22:24:22.216Z,8.45
2023-01-25T22:27:30.418Z,9.33
2023-01-25T22:30:15.877Z,8.73
2023-01-25T22:33:01.263Z,8.82
2023-01-25T22:35:47.167Z,9.37
2023-01-25T22:38:32.833Z,10.45
2023-01-25T22:41:20.424Z,10.68
2023-01-25T22:44:06.025Z,11.60
2023-01-25T22:46:52.952Z,11.30
2023-01-25T22:49:38.644Z,12.18
2023-01-25T22:52:24.316Z,12.00
2023-01-25T22:55:09.665Z,10.82
2023-01-25T22:57:55.286Z,12.13
2023-01-25T23:00:40.893Z,12.15
2023-01-25T23:03:26.333Z,11.63
2023-01-25T23:06:17.968Z,12.03
2023-01-25T23:09:06.228Z,12.07
2023-01-25T23:11:51.751Z,13.25
2023-01-25T23:14:55.049Z,13.93
2023-01-25T23:17:58.936Z,11.97
2023-01-25T23:20:44.506Z,12.00
2023-01-25T23:23:30.309Z,12.98
2023-01-25T23:26:16.397Z,12.35
2023-01-25T23:29:01.782Z,10.82
2023-01-25T23:31:47.389Z,11.52
2023-01-25T23:34:35.537Z,11.73
2023-01-25T23:37:21.998Z,11.45
2023-01-25T23:40:08.795Z,11.52
2023-01-25T23:42:54.785Z,11.38
2023-01-25T23:45:42.523Z,10.10
2023-01-25T23:48:28.019Z,11.38
2023-01-25T23:51:14.977Z,11.13
2023-01-25T23:54:00.386Z,11.23
2023-01-25T23:56:45.670Z,10.10
2023-01-25T23:59:31.401Z,10.50
